Bond, Kentucky
Current Conditions -  °F | °C
As of 10:53 AM on Friday 31 Oct 2014 (Local Time) from KLOZ Reporting Station
Light Rain Light Rain  
Wind Chill: 44°   Ceiling: 3600
Heat Index: 44°   Visibility: 5mi
Dew Point: 40°   Wind: 3mph
Humidity: 85%   Direction: 260°W
Pressure: 29.99"   Gusts: NA
Location:  37.2945°N, 83.9615°W
Report Text: KLOZ 311453Z AUTO 26003KT 5SM -RA BR BKN036 OVC047 07/04 A2999 RMK AO2 SLP155 P0004 60006 T00670044 50001
Loading
Personal Weather Stations






























Interactive Weather Map
Tropical Storm Tracking
New forecast layout! Learn more

10-Day Weather Forecast

Advertisements
Track Severe Weather on mobile